Time;durP1;ratioP1;P1;durP2;ratioP2;P2;SDS_P1;SDS_P2;PMS_P1;PMS_P2;Temp;Humidity;BMP_temperature;BMP_pressure;BME280_temperature;BME280_humidity;BME280_pressure;Samples;Min_cycle;Max_cycle;Signal;HPM_P1;HPM_P2
2022/06/24 00:00:59;;;;;;;7.27;6.77;;;23.60;99.90;;;;;;5059000;28;20452;-61
2022/06/24 00:03:33;;;;;;;7.00;6.40;;;23.60;99.90;;;;;;5058749;28;20617;-61
2022/06/24 00:06:04;;;;;;;7.90;7.30;;;23.70;99.90;;;;;;5058240;28;20461;-62
2022/06/24 00:08:32;;;;;;;7.60;6.87;;;23.70;99.90;;;;;;5059312;28;20469;-61
2022/06/24 00:11:12;;;;;;;7.73;7.03;;;23.70;99.90;;;;;;5059940;28;20560;-61
2022/06/24 00:13:40;;;;;;;10.10;7.17;;;23.70;99.90;;;;;;5059512;28;20458;-61
2022/06/24 00:16:11;;;;;;;6.50;6.00;;;23.70;99.90;;;;;;5059668;28;20925;-61
2022/06/24 00:18:38;;;;;;;7.70;7.10;;;23.80;99.90;;;;;;5058820;28;20581;-61
2022/06/24 00:21:20;;;;;;;6.63;6.13;;;23.80;99.90;;;;;;5059773;28;20459;-62
2022/06/24 00:23:47;;;;;;;7.30;6.60;;;23.90;99.90;;;;;;5059751;28;20578;-61
2022/06/24 00:26:20;;;;;;;7.10;6.40;;;23.90;99.90;;;;;;5059808;28;20752;-61
2022/06/24 00:29:01;;;;;;;6.57;5.90;;;23.90;99.90;;;;;;5059505;28;20737;-60
2022/06/24 00:31:28;;;;;;;10.20;6.67;;;24.00;99.90;;;;;;5058914;28;20465;-62
2022/06/24 00:33:56;;;;;;;8.67;7.87;;;24.00;99.90;;;;;;5059349;28;20553;-62
2022/06/24 00:36:23;;;;;;;15.97;8.13;;;24.00;99.90;;;;;;5059397;28;20580;-62
2022/06/24 00:39:00;;;;;;;11.57;9.30;;;23.70;99.90;;;;;;5059639;28;20557;-62
2022/06/24 00:41:31;;;;;;;14.87;10.00;;;23.60;99.90;;;;;;5058805;28;20462;-63
2022/06/24 00:44:04;;;;;;;15.90;9.33;;;23.30;99.90;;;;;;5058969;28;20492;-63
2022/06/24 00:46:38;;;;;;;11.07;8.20;;;23.10;99.90;;;;;;5059222;28;20473;-63
2022/06/24 00:49:09;;;;;;;9.10;8.20;;;22.80;99.90;;;;;;5059126;28;20458;-62
2022/06/24 00:51:41;;;;;;;8.40;7.50;;;22.60;99.90;;;;;;5058678;28;20473;-62
2022/06/24 00:54:14;;;;;;;10.63;8.30;;;22.40;99.90;;;;;;5059136;28;20931;-62
2022/06/24 00:56:45;;;;;;;8.63;7.27;;;22.30;99.90;;;;;;5058972;28;20504;-62
2022/06/24 00:59:12;;;;;;;12.87;8.13;;;22.10;99.90;;;;;;5058601;28;20763;-61
2022/06/24 01:01:41;;;;;;;9.07;8.27;;;22.00;99.90;;;;;;5058653;28;20565;-60
2022/06/24 01:04:10;;;;;;;9.63;7.70;;;21.90;99.90;;;;;;5058984;28;20497;-61
2022/06/24 01:06:40;;;;;;;9.87;7.70;;;21.70;99.90;;;;;;5058844;28;20466;-61
2022/06/24 01:09:11;;;;;;;10.70;7.93;;;21.60;1.00;;;;;;5058337;28;20566;-62
2022/06/24 01:11:44;;;;;;;9.20;8.30;;;21.60;1.00;;;;;;5058228;28;20466;-61
2022/06/24 01:14:12;;;;;;;8.67;6.57;;;21.50;1.00;;;;;;5058396;28;20468;-61
2022/06/24 01:16:43;;;;;;;10.17;6.57;;;21.40;1.00;;;;;;5058683;28;20486;-62
2022/06/24 01:19:15;;;;;;;11.27;6.00;;;21.40;1.00;;;;;;5057942;28;20458;-61
2022/06/24 01:21:47;;;;;;;10.10;5.77;;;21.20;1.00;;;;;;5058264;28;20577;-61
2022/06/24 01:24:17;;;;;;;8.40;6.40;;;21.20;99.90;;;;;;5057837;28;20946;-61
2022/06/24 01:26:49;;;;;;;6.57;5.23;;;21.20;1.00;;;;;;5058250;28;20564;-61
2022/06/24 01:29:20;;;;;;;10.33;6.37;;;21.20;99.90;;;;;;5057877;28;20501;-61
2022/06/24 01:31:49;;;;;;;11.97;6.60;;;21.10;99.90;;;;;;5057463;28;20557;-61
2022/06/24 01:34:17;;;;;;;5.63;4.67;;;21.20;99.90;;;;;;5058224;28;20557;-62
2022/06/24 01:36:46;;;;;;;7.60;5.60;;;21.10;99.90;;;;;;5058378;28;20553;-61
2022/06/24 01:39:14;;;;;;;8.53;4.87;;;21.10;99.90;;;;;;5057848;28;20962;-62
2022/06/24 01:41:41;;;;;;;6.07;4.23;;;21.00;99.90;;;;;;5057749;28;20560;-62
2022/06/24 01:44:09;;;;;;;10.20;5.57;;;21.00;99.90;;;;;;5057708;28;20465;-61
2022/06/24 01:46:36;;;;;;;8.60;4.90;;;21.00;99.90;;;;;;5058263;28;20524;-62
2022/06/24 01:49:08;;;;;;;6.90;4.80;;;21.00;99.90;;;;;;5058046;28;20516;-62
2022/06/24 01:51:38;;;;;;;8.20;5.53;;;21.00;1.00;;;;;;5058009;28;20919;-62
2022/06/24 01:54:07;;;;;;;7.07;4.93;;;20.90;1.00;;;;;;5057887;28;20462;-61
2022/06/24 01:56:34;;;;;;;6.63;5.53;;;20.80;1.00;;;;;;5057849;28;20469;-62
2022/06/24 01:59:02;;;;;;;8.03;5.33;;;20.70;1.00;;;;;;5057995;28;20552;-62
2022/06/24 02:01:32;;;;;;;14.83;5.57;;;20.70;1.00;;;;;;5057268;28;20470;-61
2022/06/24 02:04:03;;;;;;;6.87;5.23;;;20.70;1.00;;;;;;5057443;28;20569;-61
2022/06/24 02:06:30;;;;;;;6.77;5.00;;;20.60;1.00;;;;;;5057756;28;20914;-62
2022/06/24 02:08:58;;;;;;;6.93;4.60;;;20.60;1.00;;;;;;5057455;28;20940;-61
2022/06/24 02:14:14;;;;;;;8.37;5.37;;;20.50;1.00;;;;;;5056912;28;20595;-61
2022/06/24 02:16:42;;;;;;;6.20;4.83;;;20.50;1.00;;;;;;5057515;28;20513;-61
2022/06/24 02:19:12;;;;;;;8.97;5.03;;;20.40;1.00;;;;;;5057065;28;20466;-60
2022/06/24 02:21:40;;;;;;;9.83;5.57;;;20.50;1.00;;;;;;5057162;28;20846;-60
2022/06/24 02:24:11;;;;;;;9.90;5.57;;;20.50;1.00;;;;;;5056942;28;20462;-61
2022/06/24 02:26:42;;;;;;;11.37;5.27;;;20.50;1.00;;;;;;5057281;28;20497;-61
2022/06/24 02:29:12;;;;;;;10.43;5.87;;;20.50;1.00;;;;;;5057249;28;20524;-61
2022/06/24 02:31:40;;;;;;;11.80;6.23;;;20.60;1.00;;;;;;5057066;28;20566;-61
2022/06/24 02:34:07;;;;;;;11.70;5.33;;;20.60;1.00;;;;;;5057213;28;20515;-62
2022/06/24 02:36:35;;;;;;;10.77;6.20;;;20.60;1.00;;;;;;5057197;28;20561;-60
2022/06/24 02:39:02;;;;;;;9.40;7.00;;;20.60;1.00;;;;;;5057212;28;20827;-61
2022/06/24 02:41:30;;;;;;;10.70;6.03;;;20.60;1.00;;;;;;5056564;28;20525;-61
2022/06/24 02:43:58;;;;;;;7.57;6.50;;;20.60;1.00;;;;;;5057346;28;20459;-61
2022/06/24 02:46:26;;;;;;;8.60;6.90;;;20.70;1.00;;;;;;5056956;28;20497;-61
2022/06/24 02:48:54;;;;;;;9.43;8.50;;;20.60;1.00;;;;;;5057426;28;20564;-62
2022/06/24 02:51:27;;;;;;;11.37;10.17;;;20.70;1.00;;;;;;5056956;28;20462;-61
2022/06/24 02:53:56;;;;;;;12.57;10.50;;;20.70;1.00;;;;;;5057069;28;20468;-61
2022/06/24 02:56:24;;;;;;;13.73;9.80;;;20.60;1.00;;;;;;5057036;28;20481;-61
2022/06/24 02:58:51;;;;;;;10.33;9.43;;;20.60;1.00;;;;;;5057249;28;20925;-61
2022/06/24 03:01:23;;;;;;;12.97;8.97;;;20.50;51.10;;;;;;5056919;28;20750;-61
2022/06/24 03:03:52;;;;;;;9.80;8.80;;;20.50;78.70;;;;;;5056604;28;20458;-61
2022/06/24 03:06:19;;;;;;;9.10;7.60;;;20.50;51.00;;;;;;5057089;28;21016;-61
2022/06/24 03:08:50;;;;;;;10.50;7.50;;;20.50;21.20;;;;;;5056881;28;20516;-61
2022/06/24 03:11:18;;;;;;;11.97;6.63;;;20.50;11.50;;;;;;5056471;28;20466;-61
2022/06/24 03:13:45;;;;;;;8.00;7.20;;;20.40;8.90;;;;;;5056452;28;20469;-62
2022/06/24 03:16:12;;;;;;;6.97;6.20;;;20.40;20.00;;;;;;5056701;28;20458;-61
2022/06/24 03:18:41;;;;;;;8.07;7.27;;;20.40;14.40;;;;;;5056746;28;20564;-61
2022/06/24 03:21:12;;;;;;;7.90;6.30;;;20.30;33.10;;;;;;5056216;28;20461;-61
2022/06/24 03:23:40;;;;;;;8.23;6.20;;;20.40;38.50;;;;;;5056618;28;20925;-62
2022/06/24 03:26:11;;;;;;;9.07;5.97;;;20.40;1.00;;;;;;5056368;28;20584;-61
2022/06/24 03:28:38;;;;;;;7.07;6.47;;;20.40;1.00;;;;;;5056588;28;20473;-61
2022/06/24 03:31:14;;;;;;;7.60;6.10;;;20.30;5.90;;;;;;5056103;28;20458;-61
2022/06/24 03:33:43;;;;;;;8.33;7.50;;;20.30;13.90;;;;;;5056422;28;20887;-61
2022/06/24 03:36:11;;;;;;;10.67;9.67;;;20.30;1.00;;;;;;5056701;28;20556;-61
2022/06/24 03:38:39;;;;;;;11.17;10.23;;;20.30;1.00;;;;;;5056667;28;20524;-61
2022/06/24 03:41:07;;;;;;;13.10;11.80;;;20.30;18.90;;;;;;5055755;28;20494;-61
2022/06/24 03:43:34;;;;;;;13.50;12.30;;;20.20;81.50;;;;;;5056110;28;20775;-61
2022/06/24 03:46:05;;;;;;;13.70;12.40;;;20.20;99.90;;;;;;5056468;28;20597;-61
2022/06/24 03:48:33;;;;;;;12.53;11.40;;;20.20;99.90;;;;;;5056900;28;20553;-62
2022/06/24 03:51:02;;;;;;;14.00;12.80;;;20.10;99.90;;;;;;5056529;28;20853;-61
2022/06/24 03:53:32;;;;;;;14.53;13.23;;;20.10;99.90;;;;;;5057462;28;20489;-61
2022/06/24 03:55:59;;;;;;;14.07;12.87;;;20.20;1.00;;;;;;5059770;28;20846;-61
2022/06/24 03:58:26;;;;;;;14.03;12.97;;;20.10;1.00;;;;;;5059966;28;20462;-61
2022/06/24 04:01:01;;;;;;;14.97;13.63;;;20.10;1.00;;;;;;5059911;28;20552;-61
2022/06/24 04:03:28;;;;;;;14.33;12.93;;;20.10;1.00;;;;;;5059529;28;20472;-61
2022/06/24 04:05:56;;;;;;;15.10;13.70;;;20.00;1.00;;;;;;5059608;28;20563;-61
2022/06/24 04:08:28;;;;;;;15.10;13.70;;;20.00;22.40;;;;;;5059933;28;20462;-61
2022/06/24 04:11:00;;;;;;;16.30;14.80;;;19.90;99.90;;;;;;5059719;28;20466;-62
2022/06/24 04:13:30;;;;;;;15.67;14.37;;;19.90;99.90;;;;;;5059117;28;20462;-61
2022/06/24 04:15:57;;;;;;;16.37;14.97;;;19.90;99.90;;;;;;5059496;28;20459;-61
2022/06/24 04:18:29;;;;;;;16.17;14.87;;;19.90;1.00;;;;;;5042735;28;20598;-62
2022/06/24 04:20:56;;;;;;;17.63;16.17;;;19.80;99.90;;;;;;5037807;28;20553;-61
2022/06/24 04:23:27;;;;;;;17.47;15.87;;;19.80;99.90;;;;;;5038279;28;20490;-62
2022/06/24 04:25:55;;;;;;;19.07;17.37;;;19.80;1.00;;;;;;5048855;28;20801;-65
2022/06/24 04:28:25;;;;;;;20.63;18.97;;;19.70;1.00;;;;;;5059868;28;20476;-65
2022/06/24 04:30:52;;;;;;;20.07;18.30;;;19.80;1.00;;;;;;5057984;28;20512;-65
2022/06/24 04:33:19;;;;;;;19.33;17.77;;;19.80;1.00;;;;;;5058147;28;20486;-64
2022/06/24 04:35:47;;;;;;;19.90;18.40;;;19.80;1.00;;;;;;5059005;28;20942;-63
2022/06/24 04:38:16;;;;;;;19.70;17.90;;;19.80;1.00;;;;;;5058762;28;21025;-63
2022/06/24 04:40:49;;;;;;;20.30;18.60;;;19.80;1.00;;;;;;5059159;28;20549;-62
2022/06/24 04:43:16;;;;;;;22.70;20.77;;;19.80;1.00;;;;;;5065302;28;20497;-62
2022/06/24 04:45:45;;;;;;;20.47;18.67;;;19.80;1.00;;;;;;5067256;28;20572;-62
2022/06/24 04:48:13;;;;;;;21.40;19.40;;;19.90;1.00;;;;;;5066238;28;20455;-62
2022/06/24 04:50:40;;;;;;;19.50;17.70;;;19.90;1.00;;;;;;5065437;28;20518;-62
2022/06/24 04:53:08;;;;;;;19.83;18.03;;;19.90;99.90;;;;;;5063536;28;20945;-62
2022/06/24 04:55:38;;;;;;;19.97;18.17;;;19.90;99.90;;;;;;5065807;28;20449;-62
2022/06/24 04:58:10;;;;;;;19.93;18.27;;;19.90;99.90;;;;;;5073277;28;20464;-62
2022/06/24 05:00:38;;;;;;;20.10;18.40;;;19.90;99.90;;;;;;5067454;28;20544;-62
2022/06/24 05:03:09;;;;;;;20.30;18.33;;;19.90;99.90;;;;;;5064724;28;20462;-62
2022/06/24 05:05:37;;;;;;;20.50;18.70;;;19.90;99.90;;;;;;5064445;28;20481;-62
2022/06/24 05:08:04;;;;;;;18.10;16.50;;;19.90;1.00;;;;;;5066061;28;20543;-62
2022/06/24 05:10:32;;;;;;;17.70;16.20;;;19.90;1.00;;;;;;5040776;28;20480;-62
2022/06/24 05:13:00;;;;;;;17.80;14.80;;;19.90;99.90;;;;;;5037499;28;20549;-63
2022/06/24 05:15:31;;;;;;;15.00;13.87;;;19.90;99.90;;;;;;5036911;28;20463;-63
2022/06/24 05:17:58;;;;;;;14.43;13.17;;;19.90;99.90;;;;;;5037803;28;20497;-63
2022/06/24 05:20:26;;;;;;;15.30;13.00;;;20.00;99.90;;;;;;5046642;28;20549;-64
2022/06/24 05:22:57;;;;;;;14.00;12.80;;;19.90;99.90;;;;;;5057447;28;20802;-64
2022/06/24 05:25:24;;;;;;;14.43;13.23;;;19.80;99.90;;;;;;5056580;28;20486;-64
2022/06/24 05:27:52;;;;;;;13.70;12.60;;;19.80;99.90;;;;;;5057367;28;20552;-65
2022/06/24 05:30:19;;;;;;;14.10;12.17;;;19.80;99.90;;;;;;5057539;28;20915;-66
2022/06/24 05:32:48;;;;;;;11.43;10.37;;;19.80;1.00;;;;;;5056507;28;20955;-65
2022/06/24 05:35:16;;;;;;;11.30;10.40;;;19.80;99.90;;;;;;5057041;28;20498;-65
2022/06/24 05:37:46;;;;;;;12.33;9.77;;;19.80;1.00;;;;;;5057042;28;20527;-64
2022/06/24 05:40:13;;;;;;;12.00;10.60;;;19.70;1.00;;;;;;5057890;28;20509;-63
2022/06/24 05:42:41;;;;;;;9.80;8.73;;;19.70;1.00;;;;;;5057192;28;20944;-63
2022/06/24 05:45:09;;;;;;;9.63;8.70;;;19.70;99.90;;;;;;5055999;28;20437;-63
2022/06/24 05:47:38;;;;;;;9.13;7.60;;;19.70;81.10;;;;;;5054865;28;20501;-63
2022/06/24 05:50:10;;;;;;;8.97;6.33;;;19.70;99.90;;;;;;5056334;28;20560;-63
2022/06/24 05:55:22;;;;;;;6.70;5.03;;;19.50;99.90;;;;;;5057182;28;20943;-63
2022/06/24 05:57:52;;;;;;;10.70;4.70;;;19.50;99.90;;;;;;5057348;28;20501;-62
2022/06/24 06:00:24;;;;;;;11.57;4.33;;;19.50;1.00;;;;;;5057267;28;20882;-62
2022/06/24 06:02:51;;;;;;;6.63;4.60;;;19.50;39.30;;;;;;5037778;28;20558;-63
2022/06/24 06:05:23;;;;;;;7.30;4.40;;;19.30;99.90;;;;;;5037033;28;20593;-63
2022/06/24 06:07:50;;;;;;;8.40;4.50;;;19.30;99.90;;;;;;5037353;28;20550;-61
2022/06/24 06:10:18;;;;;;;6.17;3.87;;;19.30;99.90;;;;;;5037180;28;20463;-62
2022/06/24 06:12:54;;;;;;;5.90;3.47;;;19.30;99.90;;;;;;5037429;28;20564;-62
2022/06/24 06:15:21;;;;;;;6.40;4.00;;;19.30;82.80;;;;;;5037189;28;20585;-63
2022/06/24 06:17:52;;;;;;;5.40;4.47;;;19.40;87.70;;;;;;5036957;28;20491;-62
2022/06/24 06:20:26;;;;;;;7.63;3.57;;;19.50;52.00;;;;;;5036394;28;20943;-62
2022/06/24 06:22:53;;;;;;;4.83;3.43;;;19.60;1.00;;;;;;5036900;28;20465;-62
2022/06/24 06:25:22;;;;;;;6.37;3.53;;;19.60;1.00;;;;;;5035659;28;20553;-62
2022/06/24 06:27:50;;;;;;;3.27;2.83;;;19.70;1.00;;;;;;5041288;28;20532;-63
2022/06/24 06:30:17;;;;;;;6.07;3.70;;;19.70;1.00;;;;;;5041246;28;20475;-62
2022/06/24 06:32:45;;;;;;;4.20;3.30;;;19.80;1.00;;;;;;5056420;28;20759;-63
2022/06/24 06:35:15;;;;;;;7.50;4.07;;;19.70;1.00;;;;;;5054281;28;20470;-63
2022/06/24 06:37:43;;;;;;;7.10;2.97;;;19.90;1.00;;;;;;5074639;28;20488;-63
2022/06/24 06:40:17;;;;;;;3.60;2.80;;;20.10;1.00;;;;;;5058022;28;20556;-64
2022/06/24 06:42:44;;;;;;;4.27;3.00;;;20.30;1.00;;;;;;5056408;28;20494;-63
2022/06/24 06:45:12;;;;;;;5.20;3.83;;;20.30;1.00;;;;;;5055171;28;20781;-63
2022/06/24 06:47:42;;;;;;;4.40;2.70;;;20.40;1.00;;;;;;5053299;28;20613;-63
2022/06/24 06:50:12;;;;;;;5.40;3.87;;;20.60;1.00;;;;;;5050347;28;20481;-63
2022/06/24 06:52:39;;;;;;;6.80;3.10;;;20.80;1.00;;;;;;5054728;28;20569;-63
2022/06/24 06:55:09;;;;;;;4.90;3.33;;;20.90;1.00;;;;;;5056199;28;20457;-63
2022/06/24 06:57:36;;;;;;;5.13;3.30;;;21.00;1.00;;;;;;5055604;28;20552;-63
2022/06/24 07:00:09;;;;;;;6.00;3.50;;;21.00;1.00;;;;;;5056047;28;20552;-63
2022/06/24 07:02:37;;;;;;;5.73;3.53;;;21.10;1.00;;;;;;5067569;28;20556;-62
2022/06/24 07:05:08;;;;;;;5.30;3.20;;;21.10;99.90;;;;;;5061074;28;20546;-63
2022/06/24 07:07:36;;;;;;;4.37;3.30;;;21.00;99.90;;;;;;5075295;28;20792;-63
2022/06/24 07:10:04;;;;;;;6.23;3.20;;;21.00;1.00;;;;;;5065454;28;20561;-61
2022/06/24 07:12:36;;;;;;;7.97;3.40;;;21.30;99.90;;;;;;5056948;28;20466;-60
2022/06/24 07:15:03;;;;;;;8.23;3.60;;;21.50;99.90;;;;;;5063836;28;20823;-62
2022/06/24 07:17:36;;;;;;;6.43;3.40;;;21.30;99.90;;;;;;5065317;28;20807;-61
2022/06/24 07:20:05;;;;;;;4.03;3.10;;;21.10;99.90;;;;;;5062767;28;20754;-62
2022/06/24 07:22:32;;;;;;;9.40;4.07;;;21.00;99.90;;;;;;5063482;28;21047;-62
2022/06/24 07:25:01;;;;;;;4.70;3.17;;;21.10;99.90;;;;;;5066346;28;20553;-61
2022/06/24 07:27:31;;;;;;;7.13;3.70;;;21.00;99.90;;;;;;5065014;28;20489;-61
2022/06/24 07:30:03;;;;;;;6.40;4.07;;;21.10;99.90;;;;;;5068926;28;20514;-61
2022/06/24 07:32:32;;;;;;;5.43;3.30;;;21.20;99.90;;;;;;5060574;28;20557;-63
2022/06/24 07:34:59;;;;;;;6.30;3.40;;;21.20;99.90;;;;;;5059103;28;20466;-61
2022/06/24 07:37:29;;;;;;;6.93;3.50;;;21.10;99.90;;;;;;5059443;28;20519;-61
2022/06/24 07:39:58;;;;;;;4.80;3.23;;;21.30;99.90;;;;;;5060373;28;20561;-61
2022/06/24 07:42:25;;;;;;;5.30;3.40;;;21.40;99.90;;;;;;5067074;28;20475;-61
2022/06/24 07:44:52;;;;;;;8.77;3.63;;;21.30;99.90;;;;;;5080313;28;20461;-61
2022/06/24 07:47:23;;;;;;;4.93;3.50;;;21.50;99.90;;;;;;5079834;28;20492;-61
2022/06/24 07:49:50;;;;;;;5.47;3.07;;;21.70;99.90;;;;;;5079910;28;20534;-61
2022/06/24 07:52:20;;;;;;;7.10;4.10;;;21.80;99.90;;;;;;5080053;28;20465;-61
2022/06/24 07:56:56;;;;;;;5.20;3.40;;;22.20;99.90;;;;;;5080371;28;20557;-61
2022/06/24 07:57:43;;;;;;;9.93;3.83;;;22.30;99.90;;;;;;5079872;28;20969;-61
2022/06/24 08:00:13;;;;;;;6.90;4.40;;;22.60;99.90;;;;;;5080084;28;20467;-61
2022/06/24 08:02:44;;;;;;;8.93;3.30;;;22.90;99.90;;;;;;5078792;28;20949;-61
2022/06/24 08:05:11;;;;;;;5.33;3.60;;;23.40;99.90;;;;;;5079423;28;20484;-61
2022/06/24 08:07:43;;;;;;;5.50;3.90;;;23.70;99.90;;;;;;5077007;28;20511;-61
2022/06/24 08:10:11;;;;;;;7.43;3.80;;;23.80;99.90;;;;;;5059158;28;20891;-62
2022/06/24 08:12:41;;;;;;;6.37;3.80;;;23.70;99.90;;;;;;5059230;28;20549;-61
2022/06/24 08:15:08;;;;;;;6.53;4.03;;;23.70;99.90;;;;;;5059353;28;20462;-62
2022/06/24 08:17:36;;;;;;;5.43;3.87;;;23.70;99.90;;;;;;5058850;28;20493;-61
2022/06/24 08:20:08;;;;;;;6.07;4.40;;;23.40;99.90;;;;;;5059369;28;20552;-61
2022/06/24 08:22:42;;;;;;;6.80;3.80;;;23.00;99.90;;;;;;5062331;28;21807;-61
2022/06/24 08:25:13;;;;;;;9.37;3.60;;;22.70;99.90;;;;;;5075721;28;20813;-62
2022/06/24 08:27:42;;;;;;;8.93;5.03;;;22.40;99.90;;;;;;5079281;28;20546;-62
2022/06/24 08:30:14;;;;;;;7.50;4.80;;;22.10;99.90;;;;;;5079396;28;20756;-61
2022/06/24 08:32:43;;;;;;;6.83;4.07;;;21.90;99.90;;;;;;5079510;28;20461;-61
2022/06/24 08:35:17;;;;;;;6.10;4.73;;;22.20;99.90;;;;;;5058996;28;20462;-61
2022/06/24 08:37:47;;;;;;;7.23;4.03;;;22.40;99.90;;;;;;5060835;28;20976;-61
2022/06/24 08:40:17;;;;;;;7.63;4.63;;;22.70;99.90;;;;;;5057534;28;20981;-61
2022/06/24 08:42:52;;;;;;;6.23;4.30;;;23.20;99.90;;;;;;5057943;28;20523;-61
2022/06/24 08:45:19;;;;;;;8.70;4.43;;;23.60;99.90;;;;;;5057127;28;20556;-61
2022/06/24 08:47:47;;;;;;;4.40;3.37;;;23.70;99.90;;;;;;5058085;28;20567;-60
2022/06/24 08:50:16;;;;;;;2.33;1.87;;;23.40;99.90;;;;;;5060607;28;20457;-61
2022/06/24 08:52:48;;;;;;;4.10;2.40;;;22.20;99.90;;;;;;5064638;28;20556;-57
2022/06/24 08:55:20;;;;;;;10.60;3.47;;;21.40;99.90;;;;;;5060038;28;20466;-63
2022/06/24 08:57:50;;;;;;;5.73;2.97;;;20.70;1.00;;;;;;5067273;28;20527;-59
2022/06/24 09:00:28;;;;;;;5.93;3.23;;;20.30;1.00;;;;;;5063366;28;20512;-60
2022/06/24 09:02:57;;;;;;;6.63;3.00;;;20.00;99.90;;;;;;5063178;28;20479;-59
2022/06/24 09:05:27;;;;;;;4.17;3.00;;;19.30;99.90;;;;;;5064552;28;20553;-59
2022/06/24 09:08:03;;;;;;;6.90;3.73;;;18.90;1.00;;;;;;5065980;28;20485;-59
2022/06/24 09:10:31;;;;;;;5.20;3.40;;;19.00;99.90;;;;;;5066382;28;20438;-59
2022/06/24 09:12:58;;;;;;;3.90;3.10;;;18.90;1.00;;;;;;5065179;28;20458;-59
2022/06/24 09:15:28;;;;;;;4.63;3.57;;;18.90;99.90;;;;;;5065046;28;20453;-60
2022/06/24 09:17:59;;;;;;;5.70;3.60;;;18.70;99.90;;;;;;5065489;28;20480;-60
2022/06/24 09:20:33;;;;;;;4.60;3.40;;;18.50;1.00;;;;;;5064830;28;20445;-61
2022/06/24 09:23:06;;;;;;;7.80;3.77;;;18.60;99.90;;;;;;5050565;28;20497;-63
2022/06/24 09:25:54;;;;;;;4.17;3.60;;;18.60;99.90;;;;;;5062304;28;20526;-64
2022/06/24 09:28:22;;;;;;;4.90;3.50;;;18.50;34.90;;;;;;5058482;28;20929;-65
2022/06/24 09:30:50;;;;;;;7.73;4.93;;;18.50;99.90;;;;;;5058876;28;20476;-64
2022/06/24 09:33:19;;;;;;;5.00;4.50;;;18.30;99.90;;;;;;5057772;28;20837;-62
2022/06/24 09:35:49;;;;;;;5.93;4.37;;;18.50;99.90;;;;;;5057784;28;20875;-62
2022/06/24 09:38:17;;;;;;;6.10;5.40;;;18.50;99.90;;;;;;5058044;28;20552;-62
2022/06/24 09:40:44;;;;;;;5.20;4.23;;;18.70;99.90;;;;;;5057345;28;20557;-63
2022/06/24 09:43:13;;;;;;;4.70;3.83;;;18.80;99.90;;;;;;5057382;28;20573;-64
2022/06/24 09:45:45;;;;;;;5.00;4.50;;;18.80;1.00;;;;;;5057795;28;20564;-65
2022/06/24 09:48:26;;;;;;;6.00;4.57;;;18.90;1.00;;;;;;5057980;28;20474;-65
2022/06/24 09:50:56;;;;;;;8.27;5.70;;;19.00;99.90;;;;;;5057411;28;20480;-66
2022/06/24 09:53:26;;;;;;;5.27;4.87;;;19.00;1.00;;;;;;5066969;28;20557;-65
2022/06/24 09:55:54;;;;;;;5.37;4.70;;;19.00;1.00;;;;;;5065480;28;20451;-65
2022/06/24 09:58:22;;;;;;;5.77;4.70;;;19.00;96.00;;;;;;5071204;28;20457;-65
2022/06/24 10:00:50;;;;;;;8.10;5.17;;;19.00;99.90;;;;;;5077222;28;20550;-66
2022/06/24 10:03:26;;;;;;;5.80;5.27;;;18.90;1.00;;;;;;5066037;28;20725;-65
2022/06/24 10:06:01;;;;;;;6.73;5.43;;;19.20;99.90;;;;;;5069596;28;20544;-64
2022/06/24 10:08:31;;;;;;;5.97;5.23;;;19.60;99.90;;;;;;5077793;28;20531;-65
2022/06/24 10:11:01;;;;;;;5.20;4.70;;;20.10;99.90;;;;;;5077534;28;20972;-65
2022/06/24 10:13:33;;;;;;;7.23;5.17;;;20.50;99.90;;;;;;5057358;28;20579;-65
2022/06/24 10:16:07;;;;;;;7.10;5.47;;;21.00;1.00;;;;;;5065728;28;20843;-65
2022/06/24 10:18:39;;;;;;;5.77;4.80;;;21.50;1.00;;;;;;5072891;28;20483;-63
2022/06/24 10:21:12;;;;;;;6.03;5.40;;;21.80;1.00;;;;;;5076972;28;20464;-64
2022/06/24 10:23:45;;;;;;;5.87;5.37;;;22.10;1.00;;;;;;5076562;28;20468;-63
2022/06/24 10:26:21;;;;;;;5.37;4.87;;;22.20;1.00;;;;;;5076150;28;20606;-63
2022/06/24 10:29:24;;;;;;;7.33;5.20;;;22.40;1.00;;;;;;5076390;28;20951;-63
2022/06/24 10:32:02;;;;;;;5.37;4.87;;;22.30;99.90;;;;;;5076091;28;20457;-62
2022/06/24 10:34:46;;;;;;;6.20;5.60;;;22.60;99.90;;;;;;5077493;28;20552;-62
2022/06/24 10:37:33;;;;;;;7.97;5.60;;;22.70;99.90;;;;;;5076650;28;20457;-62
2022/06/24 10:40:03;;;;;;;5.83;5.43;;;22.50;99.90;;;;;;5077345;28;20457;-63
2022/06/24 10:42:33;;;;;;;7.00;6.33;;;22.40;99.90;;;;;;5066929;28;20580;-63
2022/06/24 10:45:03;;;;;;;5.90;5.30;;;22.30;99.90;;;;;;5057284;28;20930;-63
2022/06/24 10:47:46;;;;;;;5.87;5.37;;;22.50;99.90;;;;;;5056085;28;20493;-63
2022/06/24 10:50:20;;;;;;;5.77;5.23;;;22.70;1.00;;;;;;5056901;28;20462;-63
2022/06/24 10:53:06;;;;;;;7.00;6.30;;;23.00;99.90;;;;;;5056886;28;20467;-64
2022/06/24 10:55:42;;;;;;;7.73;5.73;;;23.30;99.90;;;;;;5047310;28;20882;-64
2022/06/24 10:58:17;;;;;;;8.47;6.50;;;23.50;99.90;;;;;;5052620;28;20812;-65
2022/06/24 11:00:51;;;;;;;7.50;6.53;;;23.50;99.90;;;;;;5047538;28;20465;-65
2022/06/24 11:03:39;;;;;;;6.80;6.10;;;23.50;99.90;;;;;;5056718;28;20458;-64
2022/06/24 11:06:10;;;;;;;7.07;6.53;;;23.60;99.90;;;;;;5061256;28;20458;-65
2022/06/24 11:08:47;;;;;;;8.00;6.63;;;24.60;99.90;;;;;;5061794;28;20579;-66
2022/06/24 11:11:27;;;;;;;6.33;5.83;;;25.70;99.90;;;;;;5063958;28;20492;-66
2022/06/24 11:13:57;;;;;;;6.03;5.43;;;26.20;99.90;;;;;;5064603;28;20553;-66
2022/06/24 11:16:33;;;;;;;6.60;6.00;;;26.60;99.90;;;;;;5064881;28;20460;-66
2022/06/24 11:19:02;;;;;;;9.03;5.10;;;26.70;99.90;;;;;;5067154;28;20482;-64
2022/06/24 11:21:29;;;;;;;6.07;5.57;;;26.50;99.90;;;;;;5069973;28;20486;-64
2022/06/24 11:24:02;;;;;;;5.27;4.40;;;26.50;99.90;;;;;;5067481;28;20821;-64
2022/06/24 11:26:29;;;;;;;5.30;4.80;;;26.80;99.90;;;;;;5068385;28;20552;-64
2022/06/24 11:28:58;;;;;;;4.90;4.50;;;26.80;99.90;;;;;;5076831;28;20488;-65
2022/06/24 11:31:27;;;;;;;4.73;4.20;;;26.10;99.90;;;;;;5079672;28;20457;-63
2022/06/24 11:34:09;;;;;;;7.20;4.07;;;25.60;99.90;;;;;;5080071;28;20485;-63
2022/06/24 11:36:38;;;;;;;8.20;4.53;;;26.70;99.90;;;;;;5080247;28;20556;-63
2022/06/24 11:39:10;;;;;;;5.00;4.60;;;26.40;99.90;;;;;;5079551;28;20541;-62
2022/06/24 11:41:44;;;;;;;4.93;4.30;;;25.80;99.90;;;;;;5080101;28;20889;-63
2022/06/24 11:44:11;;;;;;;5.70;4.27;;;25.20;99.90;;;;;;5067018;28;20980;-62
2022/06/24 11:46:39;;;;;;;4.27;3.87;;;25.70;99.90;;;;;;5060088;28;20916;-62
2022/06/24 11:49:11;;;;;;;4.40;3.90;;;26.10;99.90;;;;;;5058181;28;20500;-62
2022/06/24 11:51:39;;;;;;;4.77;4.30;;;26.10;99.90;;;;;;5059822;28;20462;-62
2022/06/24 11:54:11;;;;;;;5.63;4.43;;;26.10;99.90;;;;;;5059569;28;20795;-62
2022/06/24 11:56:40;;;;;;;6.80;4.80;;;25.80;99.90;;;;;;5059371;28;20954;-62
2022/06/24 11:59:09;;;;;;;5.13;4.50;;;25.40;99.90;;;;;;5058316;28;20865;-61
2022/06/24 12:01:40;;;;;;;5.43;5.03;;;25.00;99.90;;;;;;5057920;28;20476;-61
2022/06/24 12:04:10;;;;;;;5.63;5.03;;;24.90;99.90;;;;;;5059802;28;20561;-61
2022/06/24 12:06:44;;;;;;;6.00;5.03;;;24.60;99.90;;;;;;5060599;28;20462;-61
2022/06/24 12:09:18;;;;;;;6.50;5.03;;;24.70;99.90;;;;;;5060358;28;20498;-61
2022/06/24 12:11:50;;;;;;;6.47;4.90;;;24.80;99.90;;;;;;5060175;28;20470;-61
2022/06/24 12:14:22;;;;;;;4.90;4.50;;;25.20;99.90;;;;;;5058220;28;20458;-61
2022/06/24 12:17:02;;;;;;;6.60;5.57;;;25.40;99.90;;;;;;5059353;28;20458;-61
2022/06/24 12:19:31;;;;;;;5.67;5.17;;;25.60;99.90;;;;;;5060167;28;20458;-61
2022/06/24 12:22:10;;;;;;;5.80;5.07;;;25.50;99.90;;;;;;5060484;28;20477;-61
2022/06/24 12:24:40;;;;;;;5.73;5.23;;;25.20;99.90;;;;;;5040693;28;20448;-61
2022/06/24 12:27:13;;;;;;;6.47;5.90;;;24.90;99.90;;;;;;5056740;28;20470;-61
2022/06/24 12:29:48;;;;;;;5.63;5.13;;;24.50;99.90;;;;;;5056558;28;20937;-61
2022/06/24 12:32:20;;;;;;;6.63;6.23;;;24.10;99.90;;;;;;5069206;28;20460;-61
2022/06/24 12:34:56;;;;;;;8.30;6.93;;;23.80;99.90;;;;;;5065920;28;20479;-64
2022/06/24 12:37:24;;;;;;;6.33;5.83;;;23.30;99.90;;;;;;5064969;28;20439;-62
2022/06/24 12:39:59;;;;;;;6.93;6.33;;;23.10;99.90;;;;;;5067347;28;20454;-64
2022/06/24 12:42:26;;;;;;;6.90;6.20;;;22.70;99.90;;;;;;5065764;28;20486;-65
2022/06/24 12:44:59;;;;;;;6.83;6.23;;;22.60;99.90;;;;;;5066792;28;20542;-63
2022/06/24 12:53:00;;;;;;;5.20;4.70;;;22.50;99.90;;;;;;5079143;28;20433;-65
2022/06/24 12:55:30;;;;;;;5.07;4.67;;;22.60;99.90;;;;;;5078564;28;20461;-65
2022/06/24 12:58:01;;;;;;;5.27;4.77;;;22.80;99.90;;;;;;5079954;28;20454;-64
2022/06/24 13:00:30;;;;;;;6.33;5.83;;;23.10;99.90;;;;;;5079844;28;20457;-64
2022/06/24 13:03:02;;;;;;;6.20;4.77;;;23.70;99.90;;;;;;5079223;28;20886;-63
2022/06/24 13:05:30;;;;;;;4.60;4.30;;;24.80;99.90;;;;;;5078790;28;20556;-63
2022/06/24 13:07:57;;;;;;;4.87;4.47;;;25.60;99.90;;;;;;5079080;28;20529;-64
2022/06/24 13:10:24;;;;;;;4.63;4.23;;;26.30;99.90;;;;;;5074385;28;20552;-63
2022/06/24 13:12:55;;;;;;;5.20;4.70;;;26.70;99.90;;;;;;5068419;28;20519;-63